Time;durP1;ratioP1;P1;durP2;ratioP2;P2;SDS_P1;SDS_P2;PMS_P1;PMS_P2;Temp;Humidity;BMP_temperature;BMP_pressure;BME280_temperature;BME280_humidity;BME280_pressure;Samples;Min_cycle;Max_cycle;Signal;HPM_P1;HPM_P2
2023/03/13 00:01:47;;;;;;;22.50;11.37;;;4.40;99.90;;;;;;5054011;28;20217;-67
2023/03/13 00:04:36;;;;;;;21.83;11.30;;;4.40;99.90;;;;;;5054418;28;20294;-67
2023/03/13 00:07:27;;;;;;;22.33;11.23;;;4.30;99.90;;;;;;5063829;28;20743;-67
2023/03/13 00:10:16;;;;;;;22.63;11.00;;;4.30;99.90;;;;;;5054513;28;20242;-67
2023/03/13 00:13:05;;;;;;;23.27;11.13;;;4.30;99.90;;;;;;5055137;28;20216;-68
2023/03/13 00:16:00;;;;;;;19.73;11.43;;;4.40;99.90;;;;;;5060148;28;20851;-68
2023/03/13 00:18:51;;;;;;;22.73;9.90;;;4.50;99.90;;;;;;5039870;28;20231;-68
2023/03/13 00:21:41;;;;;;;23.30;9.90;;;4.50;99.90;;;;;;5048323;28;20781;-67
2023/03/13 00:24:32;;;;;;;20.17;9.87;;;4.60;99.90;;;;;;5060359;28;20232;-65
2023/03/13 00:27:21;;;;;;;17.70;8.97;;;4.60;99.90;;;;;;5065628;28;20666;-67
2023/03/13 00:30:15;;;;;;;22.57;10.23;;;4.60;99.90;;;;;;5058626;28;20212;-69
2023/03/13 00:33:04;;;;;;;16.40;8.63;;;4.60;99.90;;;;;;5042948;28;20228;-66
2023/03/13 00:35:52;;;;;;;15.93;8.43;;;4.70;99.90;;;;;;5060844;28;20335;-67
2023/03/13 00:38:42;;;;;;;18.03;8.60;;;4.70;99.90;;;;;;5061484;28;20301;-67
2023/03/13 00:41:33;;;;;;;14.93;8.50;;;4.60;99.90;;;;;;5057969;28;20223;-67
2023/03/13 00:44:22;;;;;;;16.83;8.27;;;4.70;99.90;;;;;;5056345;28;21050;-67
2023/03/13 00:47:11;;;;;;;14.00;8.07;;;4.60;99.90;;;;;;5059641;28;20537;-67
2023/03/13 00:50:00;;;;;;;17.13;8.70;;;4.60;99.90;;;;;;5042609;28;20224;-68
2023/03/13 00:52:49;;;;;;;15.73;8.00;;;4.70;99.90;;;;;;5056585;28;20263;-67
2023/03/13 00:55:38;;;;;;;13.63;7.97;;;4.80;99.90;;;;;;5055563;28;20227;-67
2023/03/13 00:58:30;;;;;;;14.87;8.00;;;4.70;99.90;;;;;;5059226;28;20239;-67
2023/03/13 01:01:21;;;;;;;13.07;7.47;;;4.80;99.90;;;;;;5044412;28;20703;-67
2023/03/13 01:04:11;;;;;;;13.30;7.70;;;4.80;99.90;;;;;;5042324;28;20234;-68
2023/03/13 01:07:00;;;;;;;13.33;7.50;;;4.80;99.90;;;;;;5067312;28;20219;-67
2023/03/13 01:09:49;;;;;;;12.07;7.13;;;4.70;99.90;;;;;;5049489;28;20243;-67
2023/03/13 01:12:38;;;;;;;13.67;7.43;;;4.90;99.90;;;;;;5061583;28;20799;-67
2023/03/13 01:15:28;;;;;;;14.53;7.50;;;4.90;99.90;;;;;;5056670;28;20213;-67
2023/03/13 01:18:18;;;;;;;11.80;7.10;;;4.90;99.90;;;;;;5046108;28;20221;-68
2023/03/13 01:21:07;;;;;;;14.17;7.60;;;5.00;99.90;;;;;;5063017;28;20587;-68
2023/03/13 01:23:56;;;;;;;13.63;6.87;;;5.00;99.90;;;;;;5041487;28;20735;-68
2023/03/13 01:26:46;;;;;;;13.37;7.93;;;5.00;99.90;;;;;;5043706;28;20224;-68
2023/03/13 01:29:36;;;;;;;12.67;7.33;;;5.00;99.90;;;;;;5039260;28;20682;-67
2023/03/13 01:32:26;;;;;;;14.97;7.77;;;5.00;99.90;;;;;;5044101;28;20224;-68
2023/03/13 01:35:17;;;;;;;12.03;7.13;;;4.80;99.90;;;;;;5044663;28;20228;-68
2023/03/13 01:38:06;;;;;;;16.50;7.80;;;4.90;99.90;;;;;;5053792;28;20813;-67
2023/03/13 01:40:54;;;;;;;15.07;7.73;;;4.90;99.90;;;;;;5040535;28;22708;-66
2023/03/13 01:43:44;;;;;;;13.90;7.30;;;5.00;99.90;;;;;;5063707;28;20753;-67
2023/03/13 01:46:34;;;;;;;16.30;7.77;;;5.00;99.90;;;;;;5060944;28;20232;-67
2023/03/13 01:50:00;;;;;;;17.90;8.30;;;4.90;99.90;;;;;;4978773;28;20405;-68
2023/03/13 01:53:00;;;;;;;16.73;8.03;;;4.90;99.90;;;;;;5059871;28;20235;-68
2023/03/13 01:55:54;;;;;;;17.50;8.17;;;4.90;99.90;;;;;;5044243;28;20255;-67
2023/03/13 01:58:43;;;;;;;17.70;8.23;;;4.80;99.90;;;;;;5046412;28;20323;-68
2023/03/13 02:01:32;;;;;;;15.50;8.10;;;4.80;99.90;;;;;;5052982;28;20224;-70
2023/03/13 02:04:27;;;;;;;13.90;7.97;;;4.80;99.90;;;;;;5056744;28;20224;-70
2023/03/13 02:07:22;;;;;;;14.87;8.60;;;4.90;99.90;;;;;;5058405;28;20335;-69
2023/03/13 02:10:13;;;;;;;13.90;8.40;;;4.90;99.90;;;;;;5054131;28;20223;-69
2023/03/13 02:13:03;;;;;;;16.37;8.73;;;4.90;99.90;;;;;;5046722;28;20730;-70
2023/03/13 02:15:52;;;;;;;16.20;8.47;;;4.90;99.90;;;;;;5044189;28;20220;-69
2023/03/13 02:18:41;;;;;;;15.77;8.47;;;4.80;99.90;;;;;;5038942;28;20217;-69
2023/03/13 02:21:39;;;;;;;15.60;8.30;;;4.70;99.90;;;;;;5060055;28;20357;-67
2023/03/13 02:24:35;;;;;;;18.17;9.00;;;4.70;99.90;;;;;;5057014;28;20212;-67
2023/03/13 02:27:25;;;;;;;16.67;8.93;;;4.70;99.90;;;;;;5053149;28;20685;-67
2023/03/13 02:30:15;;;;;;;20.03;9.63;;;4.70;99.90;;;;;;5043829;28;20707;-68
2023/03/13 02:33:05;;;;;;;17.70;9.30;;;4.70;99.90;;;;;;5062657;28;20705;-70
2023/03/13 02:35:55;;;;;;;19.23;9.63;;;4.60;99.90;;;;;;5037896;28;20533;-69
2023/03/13 02:38:51;;;;;;;14.53;9.10;;;4.70;99.90;;;;;;5057761;28;20220;-68
2023/03/13 02:41:42;;;;;;;19.13;8.97;;;4.70;99.90;;;;;;5043820;28;20224;-68
2023/03/13 02:44:37;;;;;;;20.30;9.53;;;4.80;99.90;;;;;;5050417;28;20362;-68
2023/03/13 02:47:27;;;;;;;18.23;10.07;;;4.70;99.90;;;;;;5057153;28;20270;-67
2023/03/13 02:50:16;;;;;;;16.80;9.03;;;4.60;99.90;;;;;;5044739;28;20216;-67
2023/03/13 02:53:07;;;;;;;15.77;9.37;;;4.70;99.90;;;;;;5055395;28;20216;-66
2023/03/13 02:55:56;;;;;;;16.87;9.20;;;4.60;99.90;;;;;;5053467;28;20242;-68
2023/03/13 02:58:46;;;;;;;14.87;9.13;;;4.70;99.90;;;;;;5034463;28;20241;-69
2023/03/13 03:01:42;;;;;;;19.23;9.60;;;4.80;99.90;;;;;;5026311;28;20635;-69
2023/03/13 03:04:31;;;;;;;17.63;9.43;;;4.70;99.90;;;;;;5020982;28;20312;-68
2023/03/13 03:07:20;;;;;;;18.20;10.17;;;4.70;99.90;;;;;;5030219;28;20235;-69
2023/03/13 03:10:10;;;;;;;16.27;9.03;;;4.70;99.90;;;;;;5030031;28;20224;-68
2023/03/13 03:13:01;;;;;;;19.80;8.97;;;4.60;99.90;;;;;;5022984;28;20308;-66
2023/03/13 03:15:51;;;;;;;17.77;9.17;;;4.70;99.90;;;;;;5026071;28;20216;-66
2023/03/13 03:18:41;;;;;;;20.83;9.63;;;4.80;99.90;;;;;;5037605;28;21041;-66
2023/03/13 03:21:30;;;;;;;19.37;9.53;;;4.90;99.90;;;;;;5029615;28;20315;-66
2023/03/13 03:24:20;;;;;;;17.03;9.53;;;4.80;99.90;;;;;;5023933;28;20383;-66
2023/03/13 03:27:08;;;;;;;18.50;9.33;;;4.80;99.90;;;;;;5027951;28;20225;-66
2023/03/13 03:30:04;;;;;;;17.07;9.17;;;4.70;99.90;;;;;;5035495;28;20220;-67
2023/03/13 03:32:54;;;;;;;19.27;9.37;;;4.80;99.90;;;;;;5040909;28;20221;-66
2023/03/13 03:35:45;;;;;;;18.87;9.20;;;4.70;99.90;;;;;;5021538;28;20316;-69
2023/03/13 03:38:34;;;;;;;17.60;8.90;;;4.60;99.90;;;;;;5034674;28;20224;-68
2023/03/13 03:41:23;;;;;;;14.90;9.47;;;4.70;99.90;;;;;;5022533;28;20255;-69
2023/03/13 03:44:12;;;;;;;16.90;9.50;;;4.80;99.90;;;;;;5021136;28;20224;-69
2023/03/13 03:47:11;;;;;;;18.77;9.57;;;4.70;99.90;;;;;;5037793;28;20229;-69
2023/03/13 03:50:03;;;;;;;14.27;8.37;;;4.70;99.90;;;;;;5017415;28;20276;-68
2023/03/13 03:53:00;;;;;;;17.63;8.90;;;4.80;99.90;;;;;;5017626;28;20308;-67
2023/03/13 03:55:49;;;;;;;16.83;9.10;;;4.80;99.90;;;;;;5034634;28;20546;-67
2023/03/13 03:58:38;;;;;;;16.27;9.00;;;4.80;99.90;;;;;;5034950;28;20264;-69
2023/03/13 04:01:50;;;;;;;17.50;9.20;;;4.80;99.90;;;;;;5060361;28;20242;-69
2023/03/13 04:04:42;;;;;;;17.53;9.53;;;4.80;99.90;;;;;;5052955;28;20583;-68
2023/03/13 04:07:41;;;;;;;15.13;9.20;;;4.60;99.90;;;;;;5048927;28;20229;-70
2023/03/13 04:10:32;;;;;;;19.03;9.83;;;4.60;99.90;;;;;;5033554;28;20232;-69
2023/03/13 04:13:21;;;;;;;17.97;9.33;;;4.60;99.90;;;;;;5046869;28;20290;-70
2023/03/13 04:16:11;;;;;;;18.77;9.60;;;4.60;99.90;;;;;;5060672;28;20227;-69
2023/03/13 04:19:01;;;;;;;16.50;9.07;;;4.60;99.90;;;;;;5045880;28;20311;-69
2023/03/13 04:21:51;;;;;;;18.10;9.33;;;4.60;99.90;;;;;;5046508;28;20746;-69
2023/03/13 04:24:40;;;;;;;16.70;9.30;;;4.60;99.90;;;;;;5056983;28;20963;-68
2023/03/13 04:27:32;;;;;;;19.37;9.53;;;4.60;99.90;;;;;;5053343;28;20216;-67
2023/03/13 04:30:21;;;;;;;15.57;9.53;;;4.60;99.90;;;;;;5061710;28;20266;-66
2023/03/13 04:33:29;;;;;;;16.77;10.17;;;4.60;99.90;;;;;;5052057;28;20632;-66
2023/03/13 04:36:54;;;;;;;21.07;10.57;;;4.60;99.90;;;;;;4985017;28;20233;-66
2023/03/13 04:40:13;;;;;;;18.30;10.23;;;4.50;99.90;;;;;;5046207;28;20262;-65
2023/03/13 04:43:20;;;;;;;18.67;9.80;;;4.40;99.90;;;;;;5050775;28;20650;-66
2023/03/13 04:46:26;;;;;;;19.27;10.77;;;4.40;99.90;;;;;;5041208;28;20779;-66
2023/03/13 04:49:28;;;;;;;17.37;10.43;;;4.50;99.90;;;;;;5047393;28;20223;-67
2023/03/13 04:52:23;;;;;;;19.03;11.03;;;4.40;99.90;;;;;;5057664;28;20249;-67
2023/03/13 04:55:29;;;;;;;21.87;10.90;;;4.40;99.90;;;;;;5058038;28;20232;-67
2023/03/13 04:58:49;;;;;;;19.27;11.00;;;4.50;99.90;;;;;;4985987;28;20899;-67
2023/03/13 05:02:12;;;;;;;19.17;11.20;;;4.50;99.90;;;;;;5040404;28;20288;-69
2023/03/13 05:05:34;;;;;;;19.67;11.70;;;4.40;99.90;;;;;;5025436;28;20221;-68
2023/03/13 05:08:38;;;;;;;16.13;10.47;;;4.40;99.90;;;;;;5028318;28;20604;-68
2023/03/13 05:11:41;;;;;;;19.00;11.13;;;4.40;99.90;;;;;;5038980;28;20307;-68
2023/03/13 05:15:01;;;;;;;19.87;11.10;;;4.40;99.90;;;;;;5017652;28;20332;-68
2023/03/13 05:18:02;;;;;;;18.17;11.07;;;4.50;99.90;;;;;;5022390;28;20235;-68
2023/03/13 05:21:20;;;;;;;17.50;11.00;;;4.50;99.90;;;;;;5011846;28;20248;-68
2023/03/13 05:24:26;;;;;;;20.80;11.20;;;4.50;99.90;;;;;;5024517;28;20224;-69
2023/03/13 05:27:35;;;;;;;19.73;10.60;;;4.50;99.90;;;;;;5031901;28;20228;-68
2023/03/13 05:30:40;;;;;;;19.70;12.13;;;4.60;99.90;;;;;;5022531;28;20217;-69
2023/03/13 05:33:35;;;;;;;18.97;11.07;;;4.50;99.90;;;;;;5039288;28;20650;-68
2023/03/13 05:36:43;;;;;;;20.50;11.00;;;4.60;99.90;;;;;;5042209;28;20236;-68
2023/03/13 05:39:51;;;;;;;23.07;12.17;;;4.70;99.90;;;;;;5041065;28;20252;-69
2023/03/13 05:43:09;;;;;;;21.40;11.87;;;4.70;99.90;;;;;;4997474;28;20588;-68
2023/03/13 05:46:29;;;;;;;18.40;11.87;;;4.80;99.90;;;;;;5035533;28;20221;-69
2023/03/13 05:49:45;;;;;;;20.37;11.63;;;4.80;99.90;;;;;;5037304;28;20221;-66
2023/03/13 05:52:55;;;;;;;16.63;10.93;;;4.70;99.90;;;;;;5039517;28;20236;-67
2023/03/13 05:56:00;;;;;;;24.53;11.50;;;4.70;99.90;;;;;;5018303;28;20226;-68
2023/03/13 05:59:07;;;;;;;19.07;11.53;;;4.70;99.90;;;;;;5044123;28;20227;-66
2023/03/13 06:02:06;;;;;;;16.10;11.20;;;4.70;99.90;;;;;;5059583;28;20342;-67
2023/03/13 06:05:00;;;;;;;17.27;11.83;;;4.80;99.90;;;;;;5056920;28;20939;-68
2023/03/13 06:07:50;;;;;;;20.10;12.53;;;4.80;99.90;;;;;;5058911;28;20710;-70
2023/03/13 06:10:38;;;;;;;17.37;12.07;;;4.80;99.90;;;;;;5055277;28;20359;-66
2023/03/13 06:13:27;;;;;;;22.40;12.97;;;4.70;99.90;;;;;;5053257;28;20232;-66
2023/03/13 06:16:21;;;;;;;18.80;12.50;;;4.90;99.90;;;;;;5038828;28;20746;-67
2023/03/13 06:19:12;;;;;;;27.53;13.67;;;4.90;99.90;;;;;;5042927;28;20702;-67
2023/03/13 06:22:01;;;;;;;24.87;13.30;;;4.80;99.90;;;;;;5058912;28;20595;-67
2023/03/13 06:24:50;;;;;;;23.40;13.37;;;4.80;99.90;;;;;;5059972;28;20224;-73
2023/03/13 06:27:38;;;;;;;22.30;13.87;;;4.80;99.90;;;;;;5046693;28;20216;-73
2023/03/13 06:30:27;;;;;;;20.83;13.37;;;4.80;99.90;;;;;;5061973;28;20216;-72
2023/03/13 06:33:16;;;;;;;19.50;13.83;;;4.90;99.90;;;;;;5041005;28;20220;-72
2023/03/13 06:36:07;;;;;;;22.67;13.73;;;4.90;99.90;;;;;;5057015;28;20650;-75
2023/03/13 06:38:56;;;;;;;25.07;13.87;;;4.90;99.90;;;;;;5058348;28;20224;-71
2023/03/13 06:41:45;;;;;;;26.93;14.57;;;4.90;99.90;;;;;;5040464;28;20718;-72
2023/03/13 06:44:34;;;;;;;24.30;14.30;;;5.00;99.90;;;;;;5040484;28;20733;-72
2023/03/13 06:47:23;;;;;;;27.00;14.60;;;5.00;99.90;;;;;;5045898;28;20232;-75
2023/03/13 06:50:12;;;;;;;24.77;14.33;;;5.00;99.90;;;;;;5054393;28;20266;-65
2023/03/13 06:53:02;;;;;;;22.73;13.73;;;5.10;99.90;;;;;;5060387;28;20236;-66
2023/03/13 06:55:51;;;;;;;21.23;13.53;;;5.10;99.90;;;;;;5053478;28;20221;-66
2023/03/13 06:58:40;;;;;;;23.30;13.80;;;5.20;99.90;;;;;;5050785;28;20224;-68
2023/03/13 07:01:29;;;;;;;21.50;13.80;;;5.10;99.90;;;;;;5043625;28;20266;-67
2023/03/13 07:04:18;;;;;;;22.80;14.20;;;5.10;99.90;;;;;;5045800;28;20656;-66
2023/03/13 07:07:07;;;;;;;25.43;13.57;;;5.10;99.90;;;;;;5058212;28;20225;-66
2023/03/13 07:10:09;;;;;;;21.97;13.60;;;5.10;99.90;;;;;;5048015;28;20222;-66
2023/03/13 07:12:58;;;;;;;19.60;13.17;;;5.20;99.90;;;;;;5058454;28;20714;-68
2023/03/13 07:15:48;;;;;;;20.20;13.70;;;5.20;99.90;;;;;;5060237;28;20312;-70
2023/03/13 07:18:38;;;;;;;19.20;12.60;;;5.20;99.90;;;;;;5053554;28;20607;-70
2023/03/13 07:21:27;;;;;;;19.53;13.57;;;5.20;99.90;;;;;;5059172;28;20281;-66
2023/03/13 07:24:15;;;;;;;19.40;11.93;;;5.30;99.90;;;;;;5060805;28;20269;-69
2023/03/13 07:27:06;;;;;;;19.37;12.27;;;5.40;99.90;;;;;;5049745;28;20302;-67
2023/03/13 07:29:56;;;;;;;18.07;12.00;;;5.40;99.90;;;;;;5033836;28;20300;-69
2023/03/13 07:32:45;;;;;;;18.23;11.87;;;5.50;99.90;;;;;;5048206;28;20220;-70
2023/03/13 07:35:34;;;;;;;19.80;12.60;;;5.50;99.90;;;;;;5064907;28;20251;-71
2023/03/13 07:38:22;;;;;;;20.10;12.20;;;5.50;99.90;;;;;;5048949;28;20220;-70
2023/03/13 07:41:13;;;;;;;17.83;11.70;;;5.50;99.90;;;;;;5064126;28;20718;-67
2023/03/13 07:44:03;;;;;;;20.13;11.87;;;5.50;99.90;;;;;;5063976;28;20843;-67
2023/03/13 07:46:52;;;;;;;22.07;12.60;;;5.70;99.90;;;;;;5043345;28;20223;-67
2023/03/13 07:49:42;;;;;;;19.70;12.20;;;5.90;99.90;;;;;;5065177;28;20220;-68
2023/03/13 07:52:32;;;;;;;17.93;11.67;;;6.00;99.90;;;;;;5049683;28;20217;-64
2023/03/13 07:55:20;;;;;;;24.60;12.80;;;5.90;99.90;;;;;;5044595;28;20628;-67
2023/03/13 07:58:09;;;;;;;20.03;12.10;;;6.00;99.90;;;;;;5058272;28;20228;-67
2023/03/13 08:01:00;;;;;;;19.03;11.73;;;6.10;99.90;;;;;;5024787;28;20231;-68
2023/03/13 08:03:50;;;;;;;22.10;11.73;;;6.10;99.90;;;;;;5024867;28;20315;-66
2023/03/13 08:06:40;;;;;;;18.87;11.83;;;6.10;99.90;;;;;;5035203;28;20225;-65
2023/03/13 08:09:32;;;;;;;19.20;11.47;;;6.10;99.90;;;;;;5035355;28;20307;-66
2023/03/13 08:12:21;;;;;;;18.77;12.40;;;6.20;99.90;;;;;;5037305;28;20698;-65
2023/03/13 08:15:10;;;;;;;20.70;12.40;;;6.30;99.90;;;;;;5039960;28;20225;-66
2023/03/13 08:18:00;;;;;;;16.50;11.43;;;6.40;99.90;;;;;;5038636;28;20236;-66
2023/03/13 08:20:49;;;;;;;16.23;11.17;;;6.50;99.90;;;;;;5032766;28;20237;-66
2023/03/13 08:23:39;;;;;;;18.67;11.47;;;6.60;99.90;;;;;;5041943;28;20701;-66
2023/03/13 08:26:29;;;;;;;16.90;11.93;;;6.70;99.90;;;;;;5023863;28;20248;-68
2023/03/13 08:29:18;;;;;;;18.87;11.93;;;6.70;99.90;;;;;;5028185;28;20290;-69
2023/03/13 08:32:08;;;;;;;20.13;12.10;;;6.70;99.90;;;;;;5043617;28;20300;-68
2023/03/13 08:34:58;;;;;;;25.37;13.37;;;6.80;99.90;;;;;;5026514;28;20225;-67
2023/03/13 08:37:47;;;;;;;21.80;12.07;;;6.90;99.90;;;;;;5030501;28;20213;-67
2023/03/13 08:40:39;;;;;;;16.83;10.53;;;6.80;99.90;;;;;;5043997;28;20658;-66
2023/03/13 08:43:27;;;;;;;19.80;12.17;;;6.90;99.90;;;;;;5045834;28;20325;-65
2023/03/13 08:46:17;;;;;;;17.63;11.43;;;7.00;99.90;;;;;;5025331;28;20577;-65
2023/03/13 08:49:08;;;;;;;18.03;11.57;;;7.10;99.90;;;;;;5044495;28;20271;-65
2023/03/13 08:51:58;;;;;;;22.77;13.73;;;7.10;99.90;;;;;;5044757;28;20237;-67
2023/03/13 08:54:48;;;;;;;16.90;11.00;;;7.30;99.90;;;;;;5036297;28;20231;-65
2023/03/13 08:57:37;;;;;;;18.90;11.43;;;7.30;99.90;;;;;;5026482;28;20220;-66
2023/03/13 09:00:27;;;;;;;18.53;11.73;;;7.50;99.90;;;;;;5040219;28;20302;-68
2023/03/13 09:03:16;;;;;;;21.30;10.93;;;7.70;99.90;;;;;;5039116;28;20701;-68
2023/03/13 09:06:05;;;;;;;19.47;11.77;;;7.90;99.90;;;;;;5053236;28;20282;-66
2023/03/13 09:08:56;;;;;;;19.57;10.73;;;8.10;99.90;;;;;;5036628;28;20696;-67
2023/03/13 09:11:45;;;;;;;18.93;11.23;;;8.20;99.90;;;;;;5043817;28;20600;-66
2023/03/13 09:14:34;;;;;;;18.33;11.93;;;8.40;99.90;;;;;;5044583;28;20719;-67
2023/03/13 09:17:25;;;;;;;21.63;10.27;;;8.70;99.90;;;;;;5038505;28;20272;-68
2023/03/13 09:20:14;;;;;;;19.33;9.97;;;8.90;99.90;;;;;;5035840;28;20239;-67
2023/03/13 09:23:02;;;;;;;15.73;8.87;;;9.10;99.90;;;;;;5029089;28;20562;-68
2023/03/13 09:25:55;;;;;;;20.93;8.87;;;9.20;99.90;;;;;;5029775;28;20221;-66
2023/03/13 09:28:44;;;;;;;13.20;8.50;;;9.20;99.90;;;;;;5036754;28;20741;-66
2023/03/13 09:31:34;;;;;;;17.97;8.03;;;9.40;99.90;;;;;;5025067;28;20705;-65
2023/03/13 09:34:24;;;;;;;12.63;8.00;;;9.60;99.90;;;;;;5040749;28;20214;-67
2023/03/13 09:37:13;;;;;;;15.43;8.47;;;9.60;99.90;;;;;;5041246;28;20219;-66
2023/03/13 09:40:02;;;;;;;15.23;8.83;;;9.70;99.90;;;;;;5038731;28;20269;-66
2023/03/13 09:42:55;;;;;;;16.57;7.57;;;9.70;99.90;;;;;;5045942;28;20224;-69
2023/03/13 09:45:47;;;;;;;16.37;7.43;;;9.80;99.90;;;;;;5042929;28;20739;-69
2023/03/13 09:48:41;;;;;;;15.73;7.67;;;9.90;99.90;;;;;;5048477;28;20916;-69
2023/03/13 09:51:35;;;;;;;15.23;7.77;;;10.00;99.90;;;;;;5047765;28;20596;-68
2023/03/13 09:54:28;;;;;;;15.70;8.00;;;10.20;99.90;;;;;;5032256;28;20223;-70
2023/03/13 09:57:24;;;;;;;15.63;7.37;;;10.10;99.90;;;;;;5032293;28;20239;-67
2023/03/13 10:00:19;;;;;;;13.38;6.57;;;10.10;99.90;;;;;;5032837;28;20296;-64
2023/03/13 10:03:14;;;;;;;14.00;6.50;;;10.20;99.90;;;;;;5041066;28;20233;-66
2023/03/13 10:06:13;;;;;;;13.40;5.77;;;10.30;99.90;;;;;;5046947;28;20227;-67
2023/03/13 10:09:03;;;;;;;16.15;6.47;;;10.50;99.90;;;;;;5049408;28;20709;-66
2023/03/13 10:11:59;;;;;;;12.35;6.55;;;10.50;99.90;;;;;;5048921;28;20320;-66
2023/03/13 10:14:57;;;;;;;13.02;6.15;;;10.50;99.90;;;;;;5037313;28;20252;-65
2023/03/13 10:17:48;;;;;;;17.60;5.93;;;10.50;99.90;;;;;;5039707;28;20546;-66
2023/03/13 10:20:37;;;;;;;12.02;5.40;;;10.50;99.90;;;;;;5036031;28;20216;-66
2023/03/13 10:23:37;;;;;;;11.35;5.32;;;10.60;99.90;;;;;;5040611;28;20221;-66
2023/03/13 10:26:29;;;;;;;18.27;6.57;;;10.70;99.90;;;;;;5038586;28;20245;-70
2023/03/13 10:29:23;;;;;;;14.00;6.00;;;10.70;99.90;;;;;;5042649;28;20325;-69
2023/03/13 10:32:14;;;;;;;15.98;5.72;;;10.60;99.90;;;;;;5044974;28;20212;-68
2023/03/13 10:35:06;;;;;;;17.17;6.18;;;10.60;99.90;;;;;;5043289;28;20846;-69
2023/03/13 10:38:07;;;;;;;12.23;5.35;;;10.60;99.90;;;;;;5044621;28;20232;-70
2023/03/13 10:41:00;;;;;;;11.55;5.75;;;10.60;99.90;;;;;;5041537;28;20236;-69
2023/03/13 10:43:53;;;;;;;15.77;6.45;;;10.70;99.90;;;;;;5042625;28;20729;-66
2023/03/13 10:46:44;;;;;;;12.50;5.32;;;10.70;99.90;;;;;;5037780;28;20311;-64
2023/03/13 10:49:34;;;;;;;15.05;6.22;;;10.70;99.90;;;;;;5034603;28;20802;-66
2023/03/13 10:52:45;;;;;;;17.17;5.93;;;10.80;99.90;;;;;;5041973;28;20245;-66
2023/03/13 10:55:33;;;;;;;12.23;5.97;;;10.80;99.90;;;;;;5038944;28;20216;-64
2023/03/13 10:58:29;;;;;;;16.98;5.72;;;10.80;99.90;;;;;;5040757;28;20239;-65
2023/03/13 11:01:21;;;;;;;15.48;5.32;;;10.80;99.90;;;;;;5044705;28;20864;-66
2023/03/13 11:04:21;;;;;;;11.25;5.28;;;10.90;99.90;;;;;;5060932;28;20247;-65
2023/03/13 11:07:16;;;;;;;9.93;5.05;;;10.90;99.90;;;;;;5061838;28;20227;-66
2023/03/13 11:10:19;;;;;;;13.85;5.50;;;11.00;99.90;;;;;;5043868;28;20591;-69
2023/03/13 11:13:31;;;;;;;10.40;5.47;;;11.00;99.90;;;;;;5048322;28;20744;-71
2023/03/13 11:16:29;;;;;;;11.85;5.03;;;11.00;99.90;;;;;;5060597;28;20700;-70
2023/03/13 11:19:52;;;;;;;13.35;5.32;;;11.10;99.90;;;;;;5063649;28;20224;-70
2023/03/13 11:22:53;;;;;;;14.90;5.45;;;11.20;99.90;;;;;;5060992;28;20216;-69
2023/03/13 11:26:00;;;;;;;13.98;5.78;;;11.20;99.90;;;;;;5045772;28;20835;-66
2023/03/13 11:28:55;;;;;;;15.10;5.38;;;11.40;99.90;;;;;;5046720;28;20283;-67
2023/03/13 11:31:47;;;;;;;12.73;5.45;;;11.60;99.90;;;;;;5063127;28;20228;-66
2023/03/13 11:34:44;;;;;;;25.40;5.65;;;11.60;99.90;;;;;;5062910;28;20228;-66
2023/03/13 11:37:35;;;;;;;16.40;5.50;;;11.70;99.90;;;;;;5063689;28;20216;-68
2023/03/13 11:40:30;;;;;;;15.48;5.80;;;11.70;99.90;;;;;;5062422;28;20343;-66
2023/03/13 11:43:38;;;;;;;11.93;5.50;;;11.90;99.90;;;;;;5049584;28;20216;-66
2023/03/13 11:46:41;;;;;;;10.48;5.15;;;11.90;99.90;;;;;;5062518;28;20216;-66
2023/03/13 11:49:57;;;;;;;14.45;5.57;;;12.00;99.90;;;;;;5060556;28;20609;-66
2023/03/13 11:52:58;;;;;;;9.63;5.43;;;12.10;99.90;;;;;;5060674;28;20580;-66
2023/03/13 11:55:57;;;;;;;14.63;5.88;;;12.10;99.90;;;;;;5046412;28;20647;-67
2023/03/13 11:58:57;;;;;;;15.43;5.40;;;12.20;99.90;;;;;;5047820;28;20228;-68
2023/03/13 12:01:51;;;;;;;16.25;5.78;;;12.20;99.90;;;;;;5063946;28;20358;-67
2023/03/13 12:04:46;;;;;;;12.90;5.68;;;12.20;99.90;;;;;;5061857;28;20224;-67
2023/03/13 12:07:39;;;;;;;15.18;5.60;;;12.10;99.90;;;;;;5063142;28;20220;-70
2023/03/13 12:10:33;;;;;;;13.05;5.45;;;12.10;99.90;;;;;;5062532;28;20313;-70
2023/03/13 12:13:29;;;;;;;12.85;5.07;;;12.10;99.90;;;;;;5040375;28;20216;-70
2023/03/13 12:16:25;;;;;;;18.33;5.45;;;12.10;99.90;;;;;;5041984;28;20247;-73
2023/03/13 12:19:19;;;;;;;11.77;4.82;;;12.10;99.90;;;;;;5061337;28;20248;-67
2023/03/13 12:22:15;;;;;;;14.60;5.13;;;12.10;99.90;;;;;;5064715;28;20224;-67
2023/03/13 12:25:10;;;;;;;13.48;5.43;;;12.10;99.90;;;;;;5060458;28;20718;-67
2023/03/13 12:28:11;;;;;;;15.73;5.50;;;12.20;99.90;;;;;;5046858;28;20274;-67
2023/03/13 12:31:10;;;;;;;12.55;4.90;;;12.20;99.90;;;;;;5042921;28;20267;-67
2023/03/13 12:34:09;;;;;;;13.73;5.45;;;12.10;99.90;;;;;;5060386;28;20723;-68
2023/03/13 12:37:07;;;;;;;13.75;5.57;;;12.10;99.90;;;;;;5050624;28;20266;-65
2023/03/13 12:40:01;;;;;;;13.85;4.97;;;12.10;99.90;;;;;;5057704;28;20643;-67
2023/03/13 12:42:57;;;;;;;15.45;5.63;;;12.00;99.90;;;;;;5055612;28;20220;-68
2023/03/13 12:46:03;;;;;;;11.65;4.38;;;12.00;99.90;;;;;;5050047;28;20312;-67
2023/03/13 12:49:12;;;;;;;14.10;4.63;;;12.00;99.90;;;;;;5062324;28;20231;-66
2023/03/13 12:52:41;;;;;;;11.65;4.50;;;11.80;99.90;;;;;;5044714;28;20702;-68
2023/03/13 12:55:45;;;;;;;15.18;4.93;;;11.80;99.90;;;;;;5001024;28;20321;-68
2023/03/13 12:58:46;;;;;;;15.02;4.93;;;11.70;99.90;;;;;;4998633;28;20250;-68
2023/03/13 13:01:40;;;;;;;13.00;5.20;;;11.70;99.90;;;;;;5040535;28;20213;-66
2023/03/13 13:04:36;;;;;;;13.80;5.43;;;11.70;99.90;;;;;;5025856;28;20231;-69
2023/03/13 13:07:27;;;;;;;17.05;5.57;;;11.70;99.90;;;;;;5031002;28;20359;-67
2023/03/13 13:10:20;;;;;;;15.88;5.38;;;11.60;99.90;;;;;;5037431;28;20658;-68
2023/03/13 13:13:30;;;;;;;15.52;5.32;;;11.50;99.90;;;;;;5042059;28;20279;-68
2023/03/13 13:16:21;;;;;;;20.52;5.90;;;11.50;99.90;;;;;;5038565;28;20228;-68
2023/03/13 13:19:46;;;;;;;12.77;4.75;;;11.40;99.90;;;;;;5040495;28;20228;-68
2023/03/13 13:22:49;;;;;;;15.32;5.47;;;11.40;99.90;;;;;;5019974;28;20224;-67
2023/03/13 13:25:40;;;;;;;15.90;5.97;;;11.40;99.90;;;;;;5040669;28;20598;-68
2023/03/13 13:28:38;;;;;;;16.48;5.38;;;11.30;99.90;;;;;;5042010;28;21446;-68
2023/03/13 13:31:59;;;;;;;16.58;5.15;;;11.30;99.90;;;;;;5040477;28;20225;-68
2023/03/13 13:35:18;;;;;;;18.58;6.15;;;11.20;99.90;;;;;;5042421;28;20220;-67
2023/03/13 13:38:35;;;;;;;14.85;5.03;;;11.20;99.90;;;;;;5037416;28;20225;-68
2023/03/13 13:41:44;;;;;;;16.63;6.35;;;11.20;99.90;;;;;;5028858;28;20229;-67
2023/03/13 13:44:33;;;;;;;15.77;5.70;;;11.10;99.90;;;;;;5036875;28;20229;-66
2023/03/13 13:47:25;;;;;;;17.88;5.80;;;11.00;99.90;;;;;;5020626;28;20221;-66
2023/03/13 13:50:21;;;;;;;14.75;5.50;;;11.00;99.90;;;;;;5025827;28;20273;-68
2023/03/13 13:53:40;;;;;;;18.35;5.25;;;11.00;99.90;;;;;;5040051;28;20225;-69
2023/03/13 13:56:41;;;;;;;18.27;6.10;;;11.00;99.90;;;;;;5039157;28;20609;-68
2023/03/13 13:59:46;;;;;;;17.33;6.18;;;10.90;99.90;;;;;;5048423;28;20731;-71
2023/03/13 14:02:37;;;;;;;21.13;5.40;;;10.90;99.90;;;;;;5061396;28;20224;-67
2023/03/13 14:05:30;;;;;;;16.90;5.30;;;10.80;99.90;;;;;;5053594;28;20220;-65
2023/03/13 14:08:24;;;;;;;20.08;6.05;;;10.80;99.90;;;;;;5063317;28;20796;-67
2023/03/13 14:11:25;;;;;;;16.40;5.57;;;10.80;99.90;;;;;;5064176;28;20239;-67
2023/03/13 14:14:16;;;;;;;13.43;5.00;;;10.80;99.90;;;;;;5045794;28;20220;-67
2023/03/13 14:17:09;;;;;;;15.70;5.03;;;10.80;99.90;;;;;;5060613;28;20258;-65
2023/03/13 14:19:58;;;;;;;13.35;5.00;;;10.80;99.90;;;;;;5056378;28;20236;-66
2023/03/13 14:22:51;;;;;;;13.15;5.93;;;10.80;99.90;;;;;;5059655;28;20231;-66
2023/03/13 14:25:43;;;;;;;17.67;5.95;;;10.80;99.90;;;;;;5060645;28;20228;-66
2023/03/13 14:28:32;;;;;;;18.73;6.05;;;10.70;99.90;;;;;;5061209;28;20228;-66
2023/03/13 14:31:30;;;;;;;20.73;6.18;;;10.80;99.90;;;;;;5057274;28;20311;-67
2023/03/13 14:34:20;;;;;;;19.98;6.10;;;10.80;99.90;;;;;;5058208;28;20220;-71
2023/03/13 14:37:35;;;;;;;13.77;5.57;;;10.80;99.90;;;;;;5057824;28;20216;-69
2023/03/13 14:40:27;;;;;;;14.38;4.97;;;10.70;99.90;;;;;;5057424;28;20685;-69
2023/03/13 14:43:29;;;;;;;15.80;5.10;;;10.80;99.90;;;;;;5046184;28;20220;-69
2023/03/13 14:46:29;;;;;;;16.75;5.40;;;10.80;99.90;;;;;;5058469;28;20731;-68
2023/03/13 14:49:20;;;;;;;17.30;5.70;;;10.80;99.90;;;;;;5035982;28;20223;-67
2023/03/13 14:52:23;;;;;;;16.20;5.55;;;10.80;99.90;;;;;;5054140;28;20612;-67
2023/03/13 14:55:32;;;;;;;14.40;5.65;;;10.80;99.90;;;;;;5058384;28;20296;-68
2023/03/13 14:58:27;;;;;;;20.70;6.57;;;10.80;99.90;;;;;;5059686;28;20257;-67
2023/03/13 15:01:25;;;;;;;16.10;5.53;;;10.80;99.90;;;;;;5060617;28;20292;-69
2023/03/13 15:04:14;;;;;;;17.10;5.05;;;10.70;99.90;;;;;;5057813;28;20530;-65